Weather at Nicolas Bravo Airport

Public forecast

Using degrees Celsius for public forecast. Weather courtesy of forecast.io.

Closest aviation weather report (METAR) to Nicolas Bravo Airport

Report is more than 6 hours old.

Closest report is Carlos Rovirosa Pérez International Airport, 19.1 nm (35.4 km) NW. Retrieved 2021/01/19 02:46 UTC (7 hours ago):

MMVA 190246Z 03008KT 7SM SKC 20/18 A3008 RMK SLP200 52007 907

Closest aviation forecast (TAF) to Nicolas Bravo Airport

Closest forecast is Carlos Rovirosa Pérez International Airport, 19.1 nm (35.4 km) NW. Retrieved 2021/01/19 06:14 UTC (4 hours ago):

TAF MMVA 190506Z 1906/2006 09005KT 6SM HZ SCT020 BKN060 TEMPO 1912/1915 2SM BR BKN010 FM191800 03010KT P6SM BKN030 TEMPO 1923/2003 5SM RA BKN020